sensor_id;sensor_type;location;lat;lon;timestamp;temperature;humidity
10083;DHT22;5080;48.528;8.078;2022-10-19T00:00:48;16.00;99.90
10083;DHT22;5080;48.528;8.078;2022-10-19T00:03:16;15.90;99.90
10083;DHT22;5080;48.528;8.078;2022-10-19T00:05:42;15.90;99.90
10083;DHT22;5080;48.528;8.078;2022-10-19T00:08:11;15.90;99.90
10083;DHT22;5080;48.528;8.078;2022-10-19T00:10:40;15.90;99.90
10083;DHT22;5080;48.528;8.078;2022-10-19T00:13:07;15.90;99.90
10083;DHT22;5080;48.528;8.078;2022-10-19T00:15:37;15.80;99.90
10083;DHT22;5080;48.528;8.078;2022-10-19T00:18:05;15.70;99.90
10083;DHT22;5080;48.528;8.078;2022-10-19T00:20:32;15.70;99.90
10083;DHT22;5080;48.528;8.078;2022-10-19T00:22:59;15.60;99.90
10083;DHT22;5080;48.528;8.078;2022-10-19T00:25:27;15.60;99.90
10083;DHT22;5080;48.528;8.078;2022-10-19T00:27:54;15.50;99.90
10083;DHT22;5080;48.528;8.078;2022-10-19T00:30:21;15.40;99.90
10083;DHT22;5080;48.528;8.078;2022-10-19T00:32:48;15.40;99.90
10083;DHT22;5080;48.528;8.078;2022-10-19T00:35:15;15.40;99.90
10083;DHT22;5080;48.528;8.078;2022-10-19T00:37:41;15.40;99.90
10083;DHT22;5080;48.528;8.078;2022-10-19T00:40:09;15.40;99.90
10083;DHT22;5080;48.528;8.078;2022-10-19T00:42:37;15.40;99.90
10083;DHT22;5080;48.528;8.078;2022-10-19T00:45:10;15.40;99.90
10083;DHT22;5080;48.528;8.078;2022-10-19T00:47:38;15.40;99.90
10083;DHT22;5080;48.528;8.078;2022-10-19T00:50:06;15.40;99.90
10083;DHT22;5080;48.528;8.078;2022-10-19T00:52:33;15.30;99.90
10083;DHT22;5080;48.528;8.078;2022-10-19T00:55:00;15.30;99.90
10083;DHT22;5080;48.528;8.078;2022-10-19T00:57:29;15.30;99.90
10083;DHT22;5080;48.528;8.078;2022-10-19T00:59:59;15.30;99.90
10083;DHT22;5080;48.528;8.078;2022-10-19T01:02:28;15.40;99.90
10083;DHT22;5080;48.528;8.078;2022-10-19T01:04:55;15.40;99.90
10083;DHT22;5080;48.528;8.078;2022-10-19T01:07:23;15.40;99.90
10083;DHT22;5080;48.528;8.078;2022-10-19T01:09:50;15.50;99.90
10083;DHT22;5080;48.528;8.078;2022-10-19T01:12:35;15.50;99.90
10083;DHT22;5080;48.528;8.078;2022-10-19T01:15:19;15.50;99.90
10083;DHT22;5080;48.528;8.078;2022-10-19T01:17:53;15.70;99.90
10083;DHT22;5080;48.528;8.078;2022-10-19T01:24:19;15.50;99.90
10083;DHT22;5080;48.528;8.078;2022-10-19T01:27:12;15.50;99.90
10083;DHT22;5080;48.528;8.078;2022-10-19T01:30:05;15.50;99.90
10083;DHT22;5080;48.528;8.078;2022-10-19T01:32:41;15.40;99.90
10083;DHT22;5080;48.528;8.078;2022-10-19T01:35:14;15.50;99.90
10083;DHT22;5080;48.528;8.078;2022-10-19T01:37:47;15.40;99.90
10083;DHT22;5080;48.528;8.078;2022-10-19T01:40:22;15.40;99.90
10083;DHT22;5080;48.528;8.078;2022-10-19T01:42:58;15.40;99.90
10083;DHT22;5080;48.528;8.078;2022-10-19T01:45:30;15.40;99.90
10083;DHT22;5080;48.528;8.078;2022-10-19T01:48:05;15.40;99.90
10083;DHT22;5080;48.528;8.078;2022-10-19T01:50:35;15.30;99.90
10083;DHT22;5080;48.528;8.078;2022-10-19T01:53:04;15.30;99.90
10083;DHT22;5080;48.528;8.078;2022-10-19T01:55:32;15.30;99.90
10083;DHT22;5080;48.528;8.078;2022-10-19T01:58:01;15.20;99.90
10083;DHT22;5080;48.528;8.078;2022-10-19T02:00:34;15.20;99.90
10083;DHT22;5080;48.528;8.078;2022-10-19T02:03:03;15.20;99.90
10083;DHT22;5080;48.528;8.078;2022-10-19T02:05:33;15.00;99.90
10083;DHT22;5080;48.528;8.078;2022-10-19T02:08:03;14.90;99.90
10083;DHT22;5080;48.528;8.078;2022-10-19T02:10:34;14.90;99.90
10083;DHT22;5080;48.528;8.078;2022-10-19T02:13:03;14.90;99.90
10083;DHT22;5080;48.528;8.078;2022-10-19T02:15:35;14.80;99.90
10083;DHT22;5080;48.528;8.078;2022-10-19T02:18:05;14.80;99.90
10083;DHT22;5080;48.528;8.078;2022-10-19T02:20:33;14.90;99.90
10083;DHT22;5080;48.528;8.078;2022-10-19T02:23:02;14.80;99.90
10083;DHT22;5080;48.528;8.078;2022-10-19T02:25:30;14.80;99.90
10083;DHT22;5080;48.528;8.078;2022-10-19T02:27:59;14.80;99.90
10083;DHT22;5080;48.528;8.078;2022-10-19T02:30:26;14.70;99.90
10083;DHT22;5080;48.528;8.078;2022-10-19T02:32:55;14.70;99.90
10083;DHT22;5080;48.528;8.078;2022-10-19T02:35:22;14.50;99.90
10083;DHT22;5080;48.528;8.078;2022-10-19T02:37:48;14.50;99.90
10083;DHT22;5080;48.528;8.078;2022-10-19T02:40:15;14.50;99.90
10083;DHT22;5080;48.528;8.078;2022-10-19T02:42:47;14.50;99.90
10083;DHT22;5080;48.528;8.078;2022-10-19T02:45:18;14.50;99.90
10083;DHT22;5080;48.528;8.078;2022-10-19T02:47:49;14.50;99.90
10083;DHT22;5080;48.528;8.078;2022-10-19T02:50:19;14.50;99.90
10083;DHT22;5080;48.528;8.078;2022-10-19T02:52:47;14.40;99.90
10083;DHT22;5080;48.528;8.078;2022-10-19T02:55:14;14.40;99.90
10083;DHT22;5080;48.528;8.078;2022-10-19T02:57:40;14.40;99.90
10083;DHT22;5080;48.528;8.078;2022-10-19T03:00:08;14.60;99.90
10083;DHT22;5080;48.528;8.078;2022-10-19T03:02:35;14.50;99.90
10083;DHT22;5080;48.528;8.078;2022-10-19T03:05:02;14.50;99.90
10083;DHT22;5080;48.528;8.078;2022-10-19T03:07:31;14.50;99.90
10083;DHT22;5080;48.528;8.078;2022-10-19T03:09:58;14.50;99.90
10083;DHT22;5080;48.528;8.078;2022-10-19T03:12:24;14.50;99.90
10083;DHT22;5080;48.528;8.078;2022-10-19T03:14:51;14.40;99.90
10083;DHT22;5080;48.528;8.078;2022-10-19T03:17:18;14.40;99.90
10083;DHT22;5080;48.528;8.078;2022-10-19T03:19:45;14.50;99.90
10083;DHT22;5080;48.528;8.078;2022-10-19T03:22:12;14.50;99.90
10083;DHT22;5080;48.528;8.078;2022-10-19T03:24:41;14.50;99.90
10083;DHT22;5080;48.528;8.078;2022-10-19T03:27:08;14.50;99.90
10083;DHT22;5080;48.528;8.078;2022-10-19T03:29:34;14.50;99.90
10083;DHT22;5080;48.528;8.078;2022-10-19T03:32:01;14.50;99.90
10083;DHT22;5080;48.528;8.078;2022-10-19T03:34:28;14.60;99.90
10083;DHT22;5080;48.528;8.078;2022-10-19T03:36:55;14.50;99.90
10083;DHT22;5080;48.528;8.078;2022-10-19T03:39:23;14.50;99.90
10083;DHT22;5080;48.528;8.078;2022-10-19T03:41:52;14.50;99.90
10083;DHT22;5080;48.528;8.078;2022-10-19T03:44:18;14.50;99.90
10083;DHT22;5080;48.528;8.078;2022-10-19T03:46:45;14.50;99.90
10083;DHT22;5080;48.528;8.078;2022-10-19T03:49:12;14.50;99.90
10083;DHT22;5080;48.528;8.078;2022-10-19T03:51:39;14.50;99.90
10083;DHT22;5080;48.528;8.078;2022-10-19T03:54:09;14.50;99.90
10083;DHT22;5080;48.528;8.078;2022-10-19T03:56:37;14.40;99.90
10083;DHT22;5080;48.528;8.078;2022-10-19T03:59:06;14.30;99.90
10083;DHT22;5080;48.528;8.078;2022-10-19T04:01:34;14.20;99.90
10083;DHT22;5080;48.528;8.078;2022-10-19T04:04:04;14.10;99.90
10083;DHT22;5080;48.528;8.078;2022-10-19T04:06:34;14.20;99.90
10083;DHT22;5080;48.528;8.078;2022-10-19T04:09:02;14.20;99.90
10083;DHT22;5080;48.528;8.078;2022-10-19T04:11:31;14.30;99.90
10083;DHT22;5080;48.528;8.078;2022-10-19T04:13:58;14.40;99.90
10083;DHT22;5080;48.528;8.078;2022-10-19T04:16:28;14.30;99.90
10083;DHT22;5080;48.528;8.078;2022-10-19T04:18:56;14.40;99.90
10083;DHT22;5080;48.528;8.078;2022-10-19T04:21:28;14.30;99.90
10083;DHT22;5080;48.528;8.078;2022-10-19T04:24:09;14.30;99.90
10083;DHT22;5080;48.528;8.078;2022-10-19T04:26:38;14.40;99.90
10083;DHT22;5080;48.528;8.078;2022-10-19T04:29:11;14.30;99.90
10083;DHT22;5080;48.528;8.078;2022-10-19T04:31:56;14.30;99.90
10083;DHT22;5080;48.528;8.078;2022-10-19T04:34:26;14.10;99.90
10083;DHT22;5080;48.528;8.078;2022-10-19T04:36:54;14.10;99.90
10083;DHT22;5080;48.528;8.078;2022-10-19T04:39:27;14.10;99.90
10083;DHT22;5080;48.528;8.078;2022-10-19T04:41:57;14.10;99.90
10083;DHT22;5080;48.528;8.078;2022-10-19T04:44:32;14.00;99.90
10083;DHT22;5080;48.528;8.078;2022-10-19T04:47:08;14.00;99.90
10083;DHT22;5080;48.528;8.078;2022-10-19T04:49:35;13.90;99.90
10083;DHT22;5080;48.528;8.078;2022-10-19T04:52:11;13.90;99.90
10083;DHT22;5080;48.528;8.078;2022-10-19T04:54:46;14.00;99.90
10083;DHT22;5080;48.528;8.078;2022-10-19T04:57:30;14.00;99.90
10083;DHT22;5080;48.528;8.078;2022-10-19T04:59:58;14.00;99.90
10083;DHT22;5080;48.528;8.078;2022-10-19T05:02:41;14.00;99.90
10083;DHT22;5080;48.528;8.078;2022-10-19T05:05:20;14.00;99.90
10083;DHT22;5080;48.528;8.078;2022-10-19T05:07:49;14.10;99.90
10083;DHT22;5080;48.528;8.078;2022-10-19T05:10:16;14.00;99.90
10083;DHT22;5080;48.528;8.078;2022-10-19T05:12:45;14.10;99.90
10083;DHT22;5080;48.528;8.078;2022-10-19T05:15:19;14.10;99.90
10083;DHT22;5080;48.528;8.078;2022-10-19T05:17:50;14.10;99.90
10083;DHT22;5080;48.528;8.078;2022-10-19T05:20:44;14.10;99.90
10083;DHT22;5080;48.528;8.078;2022-10-19T05:23:16;14.10;99.90
10083;DHT22;5080;48.528;8.078;2022-10-19T05:25:45;14.10;99.90
10083;DHT22;5080;48.528;8.078;2022-10-19T05:28:29;14.10;99.90
10083;DHT22;5080;48.528;8.078;2022-10-19T05:31:10;14.10;99.90
10083;DHT22;5080;48.528;8.078;2022-10-19T05:33:47;14.10;99.90
10083;DHT22;5080;48.528;8.078;2022-10-19T05:36:32;14.00;99.90
10083;DHT22;5080;48.528;8.078;2022-10-19T05:39:07;14.10;99.90
10083;DHT22;5080;48.528;8.078;2022-10-19T05:41:36;14.10;99.90
10083;DHT22;5080;48.528;8.078;2022-10-19T05:44:10;14.20;99.90
10083;DHT22;5080;48.528;8.078;2022-10-19T05:46:38;14.20;99.90
10083;DHT22;5080;48.528;8.078;2022-10-19T05:49:14;14.20;99.90
10083;DHT22;5080;48.528;8.078;2022-10-19T05:51:44;14.30;99.90
10083;DHT22;5080;48.528;8.078;2022-10-19T05:54:12;14.30;99.90
10083;DHT22;5080;48.528;8.078;2022-10-19T05:56:45;14.30;99.90
10083;DHT22;5080;48.528;8.078;2022-10-19T05:59:32;14.40;99.90
10083;DHT22;5080;48.528;8.078;2022-10-19T06:02:00;14.40;99.90
10083;DHT22;5080;48.528;8.078;2022-10-19T06:04:39;14.40;99.90
10083;DHT22;5080;48.528;8.078;2022-10-19T06:07:13;14.40;99.90
10083;DHT22;5080;48.528;8.078;2022-10-19T06:09:51;14.30;99.90
10083;DHT22;5080;48.528;8.078;2022-10-19T06:12:27;14.30;99.90
10083;DHT22;5080;48.528;8.078;2022-10-19T06:15:01;14.40;99.90
10083;DHT22;5080;48.528;8.078;2022-10-19T06:17:42;14.50;99.90
10083;DHT22;5080;48.528;8.078;2022-10-19T06:20:19;14.50;99.90
10083;DHT22;5080;48.528;8.078;2022-10-19T06:22:49;14.60;99.90
10083;DHT22;5080;48.528;8.078;2022-10-19T06:25:24;14.60;99.90
10083;DHT22;5080;48.528;8.078;2022-10-19T06:27:52;14.70;99.90
10083;DHT22;5080;48.528;8.078;2022-10-19T06:30:27;14.80;99.90
10083;DHT22;5080;48.528;8.078;2022-10-19T06:33:00;14.70;99.90
10083;DHT22;5080;48.528;8.078;2022-10-19T06:35:39;14.70;99.90
10083;DHT22;5080;48.528;8.078;2022-10-19T06:38:26;14.70;99.90
10083;DHT22;5080;48.528;8.078;2022-10-19T06:40:57;14.70;99.90
10083;DHT22;5080;48.528;8.078;2022-10-19T06:43:34;14.70;99.90
10083;DHT22;5080;48.528;8.078;2022-10-19T06:46:16;14.70;99.90
10083;DHT22;5080;48.528;8.078;2022-10-19T06:48:49;14.80;99.90
10083;DHT22;5080;48.528;8.078;2022-10-19T06:51:21;14.70;99.90
10083;DHT22;5080;48.528;8.078;2022-10-19T06:54:01;14.60;99.90
10083;DHT22;5080;48.528;8.078;2022-10-19T06:56:28;14.70;99.90
10083;DHT22;5080;48.528;8.078;2022-10-19T06:58:57;14.60;99.90
10083;DHT22;5080;48.528;8.078;2022-10-19T07:01:24;14.70;99.90
10083;DHT22;5080;48.528;8.078;2022-10-19T07:04:00;14.70;99.90
10083;DHT22;5080;48.528;8.078;2022-10-19T07:06:33;14.70;99.90
10083;DHT22;5080;48.528;8.078;2022-10-19T07:09:01;14.80;99.90
10083;DHT22;5080;48.528;8.078;2022-10-19T07:11:28;14.80;99.90
10083;DHT22;5080;48.528;8.078;2022-10-19T07:13:56;14.90;99.90
10083;DHT22;5080;48.528;8.078;2022-10-19T07:16:33;14.90;99.90
10083;DHT22;5080;48.528;8.078;2022-10-19T07:19:00;14.90;99.90
10083;DHT22;5080;48.528;8.078;2022-10-19T07:21:30;14.90;99.90
10083;DHT22;5080;48.528;8.078;2022-10-19T07:24:10;14.90;99.90
10083;DHT22;5080;48.528;8.078;2022-10-19T07:26:38;14.90;99.90
10083;DHT22;5080;48.528;8.078;2022-10-19T07:29:15;14.90;99.90
10083;DHT22;5080;48.528;8.078;2022-10-19T07:31:42;14.90;99.90
10083;DHT22;5080;48.528;8.078;2022-10-19T07:34:15;15.00;99.90
10083;DHT22;5080;48.528;8.078;2022-10-19T07:36:44;15.00;99.90
10083;DHT22;5080;48.528;8.078;2022-10-19T07:39:16;15.10;99.90
10083;DHT22;5080;48.528;8.078;2022-10-19T07:41:45;15.00;99.90
10083;DHT22;5080;48.528;8.078;2022-10-19T07:44:19;15.10;99.90
10083;DHT22;5080;48.528;8.078;2022-10-19T07:46:49;15.10;99.90
10083;DHT22;5080;48.528;8.078;2022-10-19T07:49:17;15.10;99.90
10083;DHT22;5080;48.528;8.078;2022-10-19T07:51:45;15.10;99.90
10083;DHT22;5080;48.528;8.078;2022-10-19T07:54:20;15.20;99.90
10083;DHT22;5080;48.528;8.078;2022-10-19T07:56:49;15.30;99.90
10083;DHT22;5080;48.528;8.078;2022-10-19T07:59:21;15.40;99.90
10083;DHT22;5080;48.528;8.078;2022-10-19T08:01:58;15.40;99.90
10083;DHT22;5080;48.528;8.078;2022-10-19T08:04:32;15.60;99.90
10083;DHT22;5080;48.528;8.078;2022-10-19T08:07:02;15.60;99.90
10083;DHT22;5080;48.528;8.078;2022-10-19T08:09:32;15.60;99.90
10083;DHT22;5080;48.528;8.078;2022-10-19T08:12:02;15.60;99.90
10083;DHT22;5080;48.528;8.078;2022-10-19T08:14:31;15.70;99.90
10083;DHT22;5080;48.528;8.078;2022-10-19T08:16:58;15.60;99.90
10083;DHT22;5080;48.528;8.078;2022-10-19T08:19:26;15.60;99.90
10083;DHT22;5080;48.528;8.078;2022-10-19T08:21:53;15.60;99.90
10083;DHT22;5080;48.528;8.078;2022-10-19T08:24:23;15.60;99.90
10083;DHT22;5080;48.528;8.078;2022-10-19T08:26:51;15.60;99.90
10083;DHT22;5080;48.528;8.078;2022-10-19T08:29:21;15.70;99.90
10083;DHT22;5080;48.528;8.078;2022-10-19T08:31:53;15.80;99.90
10083;DHT22;5080;48.528;8.078;2022-10-19T08:34:22;15.90;99.90
10083;DHT22;5080;48.528;8.078;2022-10-19T08:36:55;16.00;99.90
10083;DHT22;5080;48.528;8.078;2022-10-19T08:39:26;16.00;99.90
10083;DHT22;5080;48.528;8.078;2022-10-19T08:42:01;16.10;99.90
10083;DHT22;5080;48.528;8.078;2022-10-19T08:44:58;16.00;99.90
10083;DHT22;5080;48.528;8.078;2022-10-19T08:47:47;16.20;99.90
10083;DHT22;5080;48.528;8.078;2022-10-19T08:50:20;16.10;99.90
10083;DHT22;5080;48.528;8.078;2022-10-19T08:52:56;16.00;99.90
10083;DHT22;5080;48.528;8.078;2022-10-19T08:55:38;16.10;99.90
10083;DHT22;5080;48.528;8.078;2022-10-19T08:58:23;16.00;99.90
10083;DHT22;5080;48.528;8.078;2022-10-19T09:00:59;15.90;99.90
10083;DHT22;5080;48.528;8.078;2022-10-19T09:03:35;16.00;99.90
10083;DHT22;5080;48.528;8.078;2022-10-19T09:06:16;16.00;99.90
10083;DHT22;5080;48.528;8.078;2022-10-19T09:08:46;16.10;99.90
10083;DHT22;5080;48.528;8.078;2022-10-19T09:11:21;16.10;99.90
10083;DHT22;5080;48.528;8.078;2022-10-19T09:16:19;15.90;99.90
10083;DHT22;5080;48.528;8.078;2022-10-19T09:18:47;15.80;99.90
10083;DHT22;5080;48.528;8.078;2022-10-19T09:21:15;16.00;99.90
10083;DHT22;5080;48.528;8.078;2022-10-19T09:23:48;16.10;99.90
10083;DHT22;5080;48.528;8.078;2022-10-19T09:26:17;16.00;99.90
10083;DHT22;5080;48.528;8.078;2022-10-19T09:28:49;15.90;99.90
10083;DHT22;5080;48.528;8.078;2022-10-19T09:31:25;16.00;99.90
10083;DHT22;5080;48.528;8.078;2022-10-19T09:33:56;16.10;99.90
10083;DHT22;5080;48.528;8.078;2022-10-19T09:36:32;16.10;99.90
10083;DHT22;5080;48.528;8.078;2022-10-19T09:39:00;16.10;99.90
10083;DHT22;5080;48.528;8.078;2022-10-19T09:41:28;16.10;99.90
10083;DHT22;5080;48.528;8.078;2022-10-19T09:43:56;16.10;99.90
10083;DHT22;5080;48.528;8.078;2022-10-19T09:46:41;16.10;99.90
10083;DHT22;5080;48.528;8.078;2022-10-19T09:49:12;16.20;99.90
10083;DHT22;5080;48.528;8.078;2022-10-19T09:51:44;16.20;99.90
10083;DHT22;5080;48.528;8.078;2022-10-19T09:54:30;16.20;99.90
10083;DHT22;5080;48.528;8.078;2022-10-19T09:56:57;16.20;99.90
10083;DHT22;5080;48.528;8.078;2022-10-19T09:59:28;16.30;99.90
10083;DHT22;5080;48.528;8.078;2022-10-19T10:02:05;16.30;99.90
10083;DHT22;5080;48.528;8.078;2022-10-19T10:04:36;16.40;99.90
10083;DHT22;5080;48.528;8.078;2022-10-19T10:07:03;16.40;99.90
10083;DHT22;5080;48.528;8.078;2022-10-19T10:09:30;16.50;99.90
10083;DHT22;5080;48.528;8.078;2022-10-19T10:11:58;16.60;99.90
10083;DHT22;5080;48.528;8.078;2022-10-19T10:14:28;16.70;99.90
10083;DHT22;5080;48.528;8.078;2022-10-19T10:16:57;16.70;99.90
10083;DHT22;5080;48.528;8.078;2022-10-19T10:19:30;16.80;99.90
10083;DHT22;5080;48.528;8.078;2022-10-19T10:21:58;16.80;99.90
10083;DHT22;5080;48.528;8.078;2022-10-19T10:24:26;16.90;99.90
10083;DHT22;5080;48.528;8.078;2022-10-19T10:26:55;16.90;99.90
10083;DHT22;5080;48.528;8.078;2022-10-19T10:29:23;17.00;99.90
10083;DHT22;5080;48.528;8.078;2022-10-19T10:31:52;17.10;99.90
10083;DHT22;5080;48.528;8.078;2022-10-19T10:34:31;17.10;99.90
10083;DHT22;5080;48.528;8.078;2022-10-19T10:36:59;17.20;99.90
10083;DHT22;5080;48.528;8.078;2022-10-19T10:39:27;17.20;99.90
10083;DHT22;5080;48.528;8.078;2022-10-19T10:41:56;17.30;99.90
10083;DHT22;5080;48.528;8.078;2022-10-19T10:44:26;17.30;99.90
10083;DHT22;5080;48.528;8.078;2022-10-19T10:46:57;17.40;99.90
10083;DHT22;5080;48.528;8.078;2022-10-19T10:49:26;17.50;99.90
10083;DHT22;5080;48.528;8.078;2022-10-19T10:51:56;17.60;99.90
10083;DHT22;5080;48.528;8.078;2022-10-19T10:54:26;17.60;99.90
10083;DHT22;5080;48.528;8.078;2022-10-19T10:57:03;17.70;99.90
10083;DHT22;5080;48.528;8.078;2022-10-19T10:59:35;17.60;99.90
10083;DHT22;5080;48.528;8.078;2022-10-19T11:02:13;17.60;99.90
10083;DHT22;5080;48.528;8.078;2022-10-19T11:04:45;17.80;99.90
10083;DHT22;5080;48.528;8.078;2022-10-19T11:07:17;17.90;99.90
10083;DHT22;5080;48.528;8.078;2022-10-19T11:09:51;18.10;99.90
10083;DHT22;5080;48.528;8.078;2022-10-19T11:12:29;18.20;99.90
10083;DHT22;5080;48.528;8.078;2022-10-19T11:15:03;18.10;99.90
10083;DHT22;5080;48.528;8.078;2022-10-19T11:17:35;18.10;99.90
10083;DHT22;5080;48.528;8.078;2022-10-19T11:20:05;18.20;99.90
10083;DHT22;5080;48.528;8.078;2022-10-19T11:22:38;18.30;99.90
10083;DHT22;5080;48.528;8.078;2022-10-19T11:25:21;18.30;99.90
10083;DHT22;5080;48.528;8.078;2022-10-19T11:27:59;18.30;99.90
10083;DHT22;5080;48.528;8.078;2022-10-19T11:30:31;18.30;99.90
10083;DHT22;5080;48.528;8.078;2022-10-19T11:33:05;18.40;99.90
10083;DHT22;5080;48.528;8.078;2022-10-19T11:35:46;18.60;99.90
10083;DHT22;5080;48.528;8.078;2022-10-19T11:38:37;18.70;99.90
10083;DHT22;5080;48.528;8.078;2022-10-19T11:41:16;18.90;99.90
10083;DHT22;5080;48.528;8.078;2022-10-19T11:46:38;19.00;99.90
10083;DHT22;5080;48.528;8.078;2022-10-19T11:49:23;19.00;99.90
10083;DHT22;5080;48.528;8.078;2022-10-19T11:52:00;19.10;99.90
10083;DHT22;5080;48.528;8.078;2022-10-19T11:54:37;19.10;99.90
10083;DHT22;5080;48.528;8.078;2022-10-19T11:57:11;19.10;99.90
10083;DHT22;5080;48.528;8.078;2022-10-19T12:00:04;19.20;99.90
10083;DHT22;5080;48.528;8.078;2022-10-19T12:02:52;19.30;99.90
10083;DHT22;5080;48.528;8.078;2022-10-19T12:05:23;19.40;99.90
10083;DHT22;5080;48.528;8.078;2022-10-19T12:08:02;19.50;99.90
10083;DHT22;5080;48.528;8.078;2022-10-19T12:10:41;19.60;99.90
10083;DHT22;5080;48.528;8.078;2022-10-19T12:13:13;19.60;99.90
10083;DHT22;5080;48.528;8.078;2022-10-19T12:15:43;19.70;99.90
10083;DHT22;5080;48.528;8.078;2022-10-19T12:18:17;19.70;99.90
10083;DHT22;5080;48.528;8.078;2022-10-19T12:20:47;19.70;99.90
10083;DHT22;5080;48.528;8.078;2022-10-19T12:23:27;19.90;99.90
10083;DHT22;5080;48.528;8.078;2022-10-19T12:26:01;20.10;99.90
10083;DHT22;5080;48.528;8.078;2022-10-19T12:28:31;20.20;99.90
10083;DHT22;5080;48.528;8.078;2022-10-19T12:31:00;20.10;99.90
10083;DHT22;5080;48.528;8.078;2022-10-19T12:33:32;20.30;99.90
10083;DHT22;5080;48.528;8.078;2022-10-19T12:36:11;20.50;99.90
10083;DHT22;5080;48.528;8.078;2022-10-19T12:38:49;20.60;99.90
10083;DHT22;5080;48.528;8.078;2022-10-19T12:41:24;20.70;99.90
10083;DHT22;5080;48.528;8.078;2022-10-19T12:44:04;20.70;99.90
10083;DHT22;5080;48.528;8.078;2022-10-19T12:46:37;20.70;99.90
10083;DHT22;5080;48.528;8.078;2022-10-19T12:49:35;20.60;99.90
10083;DHT22;5080;48.528;8.078;2022-10-19T12:52:03;20.60;99.90
10083;DHT22;5080;48.528;8.078;2022-10-19T12:54:34;20.50;99.90
10083;DHT22;5080;48.528;8.078;2022-10-19T12:57:22;20.50;99.90
10083;DHT22;5080;48.528;8.078;2022-10-19T12:59:58;20.50;99.90
10083;DHT22;5080;48.528;8.078;2022-10-19T13:02:29;20.60;99.90
10083;DHT22;5080;48.528;8.078;2022-10-19T13:04:57;20.70;99.90
10083;DHT22;5080;48.528;8.078;2022-10-19T13:07:25;20.70;99.90
10083;DHT22;5080;48.528;8.078;2022-10-19T13:09:59;20.80;99.90
10083;DHT22;5080;48.528;8.078;2022-10-19T13:12:41;20.90;99.90
10083;DHT22;5080;48.528;8.078;2022-10-19T13:15:47;21.00;99.90
10083;DHT22;5080;48.528;8.078;2022-10-19T13:25:20;21.30;99.90
10083;DHT22;5080;48.528;8.078;2022-10-19T13:27:52;21.30;99.90
10083;DHT22;5080;48.528;8.078;2022-10-19T13:30:58;21.30;99.90
10083;DHT22;5080;48.528;8.078;2022-10-19T13:33:47;21.30;99.90
10083;DHT22;5080;48.528;8.078;2022-10-19T13:36:15;21.40;99.90
10083;DHT22;5080;48.528;8.078;2022-10-19T13:38:43;21.40;99.90
10083;DHT22;5080;48.528;8.078;2022-10-19T13:41:17;21.50;99.90
10083;DHT22;5080;48.528;8.078;2022-10-19T13:44:04;21.40;99.90
10083;DHT22;5080;48.528;8.078;2022-10-19T13:46:50;21.40;99.90
10083;DHT22;5080;48.528;8.078;2022-10-19T13:49:40;21.40;99.90
10083;DHT22;5080;48.528;8.078;2022-10-19T13:52:42;21.40;99.90
10083;DHT22;5080;48.528;8.078;2022-10-19T13:58:28;21.50;99.90
10083;DHT22;5080;48.528;8.078;2022-10-19T14:01:10;21.30;99.90
10083;DHT22;5080;48.528;8.078;2022-10-19T14:06:32;21.20;99.90
10083;DHT22;5080;48.528;8.078;2022-10-19T14:09:22;21.00;99.90
10083;DHT22;5080;48.528;8.078;2022-10-19T14:11:52;21.00;99.90
10083;DHT22;5080;48.528;8.078;2022-10-19T14:14:23;21.00;99.90
10083;DHT22;5080;48.528;8.078;2022-10-19T14:16:53;21.00;99.90
10083;DHT22;5080;48.528;8.078;2022-10-19T14:19:23;21.10;99.90
10083;DHT22;5080;48.528;8.078;2022-10-19T14:21:55;21.10;99.90
10083;DHT22;5080;48.528;8.078;2022-10-19T14:24:31;21.10;99.90
10083;DHT22;5080;48.528;8.078;2022-10-19T14:27:00;21.30;99.90
10083;DHT22;5080;48.528;8.078;2022-10-19T14:29:29;21.50;99.90
10083;DHT22;5080;48.528;8.078;2022-10-19T14:31:57;21.70;99.90
10083;DHT22;5080;48.528;8.078;2022-10-19T14:34:24;21.70;99.90
10083;DHT22;5080;48.528;8.078;2022-10-19T14:36:51;21.60;99.90
10083;DHT22;5080;48.528;8.078;2022-10-19T14:39:25;21.40;99.90
10083;DHT22;5080;48.528;8.078;2022-10-19T14:41:54;21.30;99.90
10083;DHT22;5080;48.528;8.078;2022-10-19T14:44:35;21.10;99.90
10083;DHT22;5080;48.528;8.078;2022-10-19T14:49:40;21.10;99.90
10083;DHT22;5080;48.528;8.078;2022-10-19T14:52:07;21.00;99.90
10083;DHT22;5080;48.528;8.078;2022-10-19T14:54:37;20.90;99.90
10083;DHT22;5080;48.528;8.078;2022-10-19T14:57:10;20.90;99.90
10083;DHT22;5080;48.528;8.078;2022-10-19T14:59:44;20.90;99.90
10083;DHT22;5080;48.528;8.078;2022-10-19T15:02:16;20.90;99.90
10083;DHT22;5080;48.528;8.078;2022-10-19T15:04:44;20.80;99.90
10083;DHT22;5080;48.528;8.078;2022-10-19T15:07:17;20.80;99.90
10083;DHT22;5080;48.528;8.078;2022-10-19T15:09:49;20.80;99.90
10083;DHT22;5080;48.528;8.078;2022-10-19T15:12:21;20.80;99.90
10083;DHT22;5080;48.528;8.078;2022-10-19T15:14:50;20.70;99.90
10083;DHT22;5080;48.528;8.078;2022-10-19T15:17:23;20.60;99.90
10083;DHT22;5080;48.528;8.078;2022-10-19T15:19:51;20.50;99.90
10083;DHT22;5080;48.528;8.078;2022-10-19T15:22:22;20.40;99.90
10083;DHT22;5080;48.528;8.078;2022-10-19T15:24:58;20.30;99.90
10083;DHT22;5080;48.528;8.078;2022-10-19T15:27:31;20.30;99.90
10083;DHT22;5080;48.528;8.078;2022-10-19T15:30:01;20.20;99.90
10083;DHT22;5080;48.528;8.078;2022-10-19T15:32:30;20.10;99.90
10083;DHT22;5080;48.528;8.078;2022-10-19T15:35:00;20.00;99.90
10083;DHT22;5080;48.528;8.078;2022-10-19T15:37:34;20.00;99.90
10083;DHT22;5080;48.528;8.078;2022-10-19T15:40:09;20.00;99.90
10083;DHT22;5080;48.528;8.078;2022-10-19T15:42:37;20.00;99.90
10083;DHT22;5080;48.528;8.078;2022-10-19T15:45:32;19.90;99.90
10083;DHT22;5080;48.528;8.078;2022-10-19T15:48:26;19.80;99.90
10083;DHT22;5080;48.528;8.078;2022-10-19T15:50:54;19.80;99.90
10083;DHT22;5080;48.528;8.078;2022-10-19T15:53:21;19.80;99.90
10083;DHT22;5080;48.528;8.078;2022-10-19T15:55:48;19.80;99.90
10083;DHT22;5080;48.528;8.078;2022-10-19T15:58:15;19.80;99.90
10083;DHT22;5080;48.528;8.078;2022-10-19T16:00:44;19.70;99.90
10083;DHT22;5080;48.528;8.078;2022-10-19T16:03:10;19.70;99.90
10083;DHT22;5080;48.528;8.078;2022-10-19T16:05:37;19.60;99.90
10083;DHT22;5080;48.528;8.078;2022-10-19T16:08:05;19.60;99.90
10083;DHT22;5080;48.528;8.078;2022-10-19T16:10:32;19.60;99.90
10083;DHT22;5080;48.528;8.078;2022-10-19T16:12:58;19.50;99.90
10083;DHT22;5080;48.528;8.078;2022-10-19T16:15:25;19.40;99.90
10083;DHT22;5080;48.528;8.078;2022-10-19T16:17:56;19.30;99.90
10083;DHT22;5080;48.528;8.078;2022-10-19T16:20:24;19.30;99.90
10083;DHT22;5080;48.528;8.078;2022-10-19T16:22:51;19.20;99.90
10083;DHT22;5080;48.528;8.078;2022-10-19T16:25:18;19.10;99.90
10083;DHT22;5080;48.528;8.078;2022-10-19T16:27:45;19.10;99.90
10083;DHT22;5080;48.528;8.078;2022-10-19T16:30:12;19.10;99.90
10083;DHT22;5080;48.528;8.078;2022-10-19T16:32:39;19.00;99.90
10083;DHT22;5080;48.528;8.078;2022-10-19T16:35:08;19.00;99.90
10083;DHT22;5080;48.528;8.078;2022-10-19T16:37:36;18.90;99.90
10083;DHT22;5080;48.528;8.078;2022-10-19T16:40:03;18.90;99.90
10083;DHT22;5080;48.528;8.078;2022-10-19T16:42:30;18.90;99.90